createdAt,value
2022-12-17T00:00:27.699Z,31.48
2022-12-17T00:03:17.824Z,32.08
2022-12-17T00:06:03.382Z,30.42
2022-12-17T00:08:49.018Z,30.85
2022-12-17T00:11:34.239Z,31.58
2022-12-17T00:14:19.017Z,31.00
2022-12-17T00:17:03.986Z,31.02
2022-12-17T00:19:48.927Z,30.03
2022-12-17T00:22:34.110Z,30.70
2022-12-17T00:25:19.112Z,31.23
2022-12-17T00:28:04.266Z,31.37
2022-12-17T00:30:49.446Z,31.60
2022-12-17T00:33:35.486Z,33.13
2022-12-17T00:36:20.888Z,32.90
2022-12-17T00:39:05.835Z,32.00
2022-12-17T00:41:51.088Z,32.47
2022-12-17T00:44:36.217Z,34.00
2022-12-17T00:47:21.035Z,32.47
2022-12-17T00:50:07.145Z,31.98
2022-12-17T00:52:52.383Z,32.88
2022-12-17T00:55:37.441Z,31.40
2022-12-17T00:58:22.231Z,31.13
2022-12-17T01:01:07.182Z,31.60
2022-12-17T01:03:52.316Z,32.63
2022-12-17T01:06:37.418Z,29.63
2022-12-17T01:09:22.533Z,31.48
2022-12-17T01:12:07.232Z,31.27
2022-12-17T01:14:52.442Z,32.53
2022-12-17T01:17:37.586Z,33.17
2022-12-17T01:20:23.051Z,31.98
2022-12-17T01:23:08.035Z,33.72
2022-12-17T01:25:52.979Z,32.10
2022-12-17T01:28:43.366Z,31.85
2022-12-17T01:31:34.629Z,30.02
2022-12-17T01:34:20.153Z,31.35
2022-12-17T01:37:05.988Z,30.38
2022-12-17T01:39:51.206Z,31.77
2022-12-17T01:42:36.135Z,32.58
2022-12-17T01:45:32.262Z,31.15
2022-12-17T01:48:21.404Z,32.42
2022-12-17T01:51:11.700Z,31.05
2022-12-17T01:54:01.621Z,32.92
2022-12-17T01:56:47.370Z,32.33
2022-12-17T01:59:33.440Z,34.80
2022-12-17T02:02:19.020Z,33.67
2022-12-17T02:05:04.244Z,32.65
2022-12-17T02:08:08.414Z,33.45
2022-12-17T02:11:15.799Z,33.67
2022-12-17T02:14:12.189Z,32.45
2022-12-17T02:17:05.548Z,32.45
2022-12-17T02:19:56.765Z,31.98
2022-12-17T02:22:57.131Z,32.38
2022-12-17T02:26:08.191Z,33.20
2022-12-17T02:28:57.933Z,32.30
2022-12-17T02:31:45.047Z,32.60
2022-12-17T02:34:30.458Z,33.38
2022-12-17T02:37:15.852Z,33.47
2022-12-17T02:40:01.520Z,32.80
2022-12-17T02:42:50.139Z,33.67
2022-12-17T02:45:36.534Z,34.85
2022-12-17T02:48:23.085Z,35.35
2022-12-17T02:51:08.447Z,33.90
2022-12-17T02:53:53.774Z,32.78
2022-12-17T02:56:40.645Z,31.98
2022-12-17T02:59:25.724Z,33.60
2022-12-17T03:02:11.878Z,35.25
2022-12-17T03:05:10.504Z,31.75
2022-12-17T03:08:02.797Z,32.75
2022-12-17T03:10:47.753Z,34.00
2022-12-17T03:13:44.089Z,32.97
2022-12-17T03:16:37.098Z,32.40
2022-12-17T03:19:22.735Z,34.03
2022-12-17T03:22:07.515Z,33.17
2022-12-17T03:24:52.624Z,33.55
2022-12-17T03:27:39.445Z,33.40
2022-12-17T03:30:24.834Z,34.20
2022-12-17T03:33:09.921Z,33.90
2022-12-17T03:35:54.943Z,34.47
2022-12-17T03:38:39.820Z,34.93
2022-12-17T03:41:27.002Z,33.10
2022-12-17T03:44:11.999Z,32.17
2022-12-17T03:46:56.920Z,34.77
2022-12-17T03:49:41.663Z,34.72
2022-12-17T03:52:26.580Z,34.95
2022-12-17T03:55:11.297Z,34.40
2022-12-17T03:57:56.321Z,35.55
2022-12-17T04:00:41.567Z,36.95
2022-12-17T04:03:26.276Z,36.30
2022-12-17T04:06:11.368Z,36.35
2022-12-17T04:08:56.248Z,37.67
2022-12-17T04:11:41.220Z,36.88
2022-12-17T04:14:26.307Z,37.10
2022-12-17T04:17:12.671Z,37.75
2022-12-17T04:19:57.561Z,36.22
2022-12-17T04:22:42.470Z,36.60
2022-12-17T04:25:27.370Z,37.40
2022-12-17T04:28:12.334Z,36.10
2022-12-17T04:30:57.347Z,34.70
2022-12-17T04:33:52.973Z,36.67
2022-12-17T04:36:37.892Z,36.70
2022-12-17T04:39:22.878Z,36.08
2022-12-17T04:42:07.997Z,37.17
2022-12-17T04:44:52.691Z,36.53
2022-12-17T04:47:37.747Z,36.65
2022-12-17T04:50:23.443Z,37.88
2022-12-17T04:53:08.358Z,39.17
2022-12-17T04:55:53.125Z,40.55
2022-12-17T04:58:38.220Z,38.70
2022-12-17T05:01:23.471Z,39.63
2022-12-17T05:04:08.576Z,41.78
2022-12-17T05:06:53.656Z,38.40
2022-12-17T05:09:38.484Z,39.63
2022-12-17T05:12:23.784Z,40.58
2022-12-17T05:15:08.608Z,39.80
2022-12-17T05:17:53.375Z,40.22
2022-12-17T05:20:38.151Z,40.20
2022-12-17T05:23:26.888Z,38.08
2022-12-17T05:26:24.307Z,40.65
2022-12-17T05:29:15.451Z,39.83
2022-12-17T05:32:00.780Z,41.67
2022-12-17T05:34:46.006Z,40.67
2022-12-17T05:37:31.094Z,42.00
2022-12-17T05:40:16.233Z,38.97
2022-12-17T05:43:01.095Z,40.90
2022-12-17T05:45:46.027Z,41.22
2022-12-17T05:48:31.075Z,40.47
2022-12-17T05:51:15.948Z,40.20
2022-12-17T05:54:00.875Z,40.42
2022-12-17T05:56:45.736Z,40.10
2022-12-17T05:59:30.648Z,38.67
2022-12-17T06:02:15.747Z,40.27
2022-12-17T06:05:02.524Z,38.58
2022-12-17T06:07:48.167Z,38.72
2022-12-17T06:10:33.039Z,39.30
2022-12-17T06:13:17.976Z,36.20
2022-12-17T06:16:08.019Z,38.47
2022-12-17T06:18:54.159Z,38.03
2022-12-17T06:21:40.301Z,38.45
2022-12-17T06:24:25.412Z,36.90
2022-12-17T06:27:10.988Z,38.15
2022-12-17T06:29:56.417Z,39.53
2022-12-17T06:32:41.619Z,37.42
2022-12-17T06:35:26.911Z,40.80
2022-12-17T06:38:24.490Z,38.15
2022-12-17T06:41:12.462Z,37.55
2022-12-17T06:43:57.507Z,39.03
2022-12-17T06:46:42.439Z,39.28
2022-12-17T06:49:27.560Z,40.03
2022-12-17T06:52:14.739Z,43.28
2022-12-17T06:55:16.471Z,42.15
2022-12-17T06:58:01.796Z,40.67
2022-12-17T07:00:47.089Z,37.38
2022-12-17T07:03:32.349Z,38.85
2022-12-17T07:06:20.478Z,41.30
2022-12-17T07:09:05.688Z,38.63
2022-12-17T07:11:51.032Z,40.45
2022-12-17T07:14:36.183Z,39.63
2022-12-17T07:17:21.371Z,40.95
2022-12-17T07:20:06.477Z,37.70
2022-12-17T07:22:52.752Z,40.20
2022-12-17T07:25:41.616Z,38.83
2022-12-17T07:28:30.680Z,38.55
2022-12-17T07:31:16.045Z,39.50
2022-12-17T07:34:01.200Z,42.72
2022-12-17T07:36:45.931Z,37.20
2022-12-17T07:39:30.874Z,39.08
2022-12-17T07:42:16.026Z,36.77
2022-12-17T07:45:01.124Z,38.92
2022-12-17T07:47:46.049Z,37.90
2022-12-17T07:50:30.877Z,38.13
2022-12-17T07:53:23.826Z,36.97
2022-12-17T07:56:10.297Z,37.40
2022-12-17T07:58:55.454Z,35.85
2022-12-17T08:01:40.812Z,37.58
2022-12-17T08:04:45.694Z,36.50
2022-12-17T08:07:30.719Z,38.05
2022-12-17T08:10:15.685Z,39.10
2022-12-17T08:13:00.516Z,37.43
2022-12-17T08:15:45.695Z,37.53
2022-12-17T08:18:30.759Z,37.40
2022-12-17T08:21:15.907Z,39.72
2022-12-17T08:24:01.006Z,37.35
2022-12-17T08:26:48.197Z,36.45
2022-12-17T08:29:33.971Z,38.15
2022-12-17T08:32:29.803Z,36.80
2022-12-17T08:35:14.744Z,37.70
2022-12-17T08:38:00.054Z,39.23
2022-12-17T08:40:44.921Z,37.47
2022-12-17T08:43:29.975Z,36.05
2022-12-17T08:46:15.135Z,38.00
2022-12-17T08:49:00.412Z,39.10
2022-12-17T08:51:51.262Z,37.83
2022-12-17T08:54:36.040Z,38.92
2022-12-17T08:57:31.456Z,37.70
2022-12-17T09:03:02.647Z,35.80
2022-12-17T09:05:59.459Z,36.33
2022-12-17T09:08:44.354Z,37.15
2022-12-17T09:11:29.453Z,40.50
2022-12-17T09:14:14.372Z,39.15
2022-12-17T09:16:59.536Z,37.67
2022-12-17T09:19:44.729Z,37.30
2022-12-17T09:22:29.592Z,37.03
2022-12-17T09:25:14.804Z,37.23
2022-12-17T09:27:59.563Z,36.30
2022-12-17T09:30:45.025Z,38.30
2022-12-17T09:33:35.432Z,36.80
2022-12-17T09:36:24.937Z,39.95
2022-12-17T09:39:20.706Z,38.03
2022-12-17T09:42:50.494Z,37.17
2022-12-17T09:45:44.058Z,37.58
2022-12-17T09:48:41.630Z,37.40
2022-12-17T09:51:53.236Z,35.20
2022-12-17T09:54:46.811Z,36.65
2022-12-17T09:57:36.881Z,35.85
2022-12-17T10:00:42.398Z,38.95
2022-12-17T10:03:31.692Z,38.72
2022-12-17T10:06:23.046Z,37.83
2022-12-17T10:09:16.811Z,38.15
2022-12-17T10:12:02.520Z,37.78
2022-12-17T10:14:47.818Z,37.88
2022-12-17T10:17:36.287Z,38.83
2022-12-17T10:20:23.047Z,37.75
2022-12-17T10:23:09.082Z,37.63
2022-12-17T10:25:54.567Z,37.55
2022-12-17T10:28:43.486Z,37.20
2022-12-17T10:31:29.990Z,37.20
2022-12-17T10:34:15.774Z,37.25
2022-12-17T10:37:07.234Z,36.78
2022-12-17T10:39:52.657Z,37.92
2022-12-17T10:42:38.590Z,37.08
2022-12-17T10:48:44.700Z,34.80
2022-12-17T10:51:43.258Z,36.42
2022-12-17T10:54:42.610Z,37.17
2022-12-17T10:57:52.000Z,35.42
2022-12-17T11:00:36.855Z,36.72
2022-12-17T11:03:22.852Z,36.78
2022-12-17T11:06:13.134Z,36.65
2022-12-17T11:08:59.755Z,36.70
2022-12-17T11:11:45.127Z,37.67
2022-12-17T11:14:32.453Z,38.72
2022-12-17T11:17:23.238Z,37.72
2022-12-17T11:20:26.451Z,38.38
2022-12-17T11:23:14.989Z,38.10
2022-12-17T11:26:22.997Z,36.70
2022-12-17T11:29:08.484Z,35.53
2022-12-17T11:32:27.892Z,36.33
2022-12-17T11:35:25.956Z,36.25
2022-12-17T11:38:40.445Z,34.60
2022-12-17T11:41:37.053Z,36.35
2022-12-17T11:44:32.390Z,37.22
2022-12-17T11:47:56.117Z,35.93
2022-12-17T11:50:50.711Z,36.53
2022-12-17T11:53:35.528Z,38.92
2022-12-17T11:56:45.436Z,38.42
2022-12-17T11:59:39.765Z,35.28
2022-12-17T12:02:43.651Z,36.00
2022-12-17T12:06:05.601Z,36.85
2022-12-17T12:08:59.613Z,35.75
2022-12-17T12:11:55.444Z,35.67
2022-12-17T12:15:03.715Z,35.00
2022-12-17T12:18:11.291Z,36.88
2022-12-17T12:21:05.753Z,34.65
2022-12-17T12:24:02.610Z,34.58
2022-12-17T12:27:07.047Z,34.28
2022-12-17T12:30:08.319Z,32.30
2022-12-17T12:33:40.068Z,33.40
2022-12-17T12:36:30.130Z,34.05
2022-12-17T12:39:18.845Z,34.08
2022-12-17T12:42:13.779Z,31.83
2022-12-17T12:45:22.736Z,30.40
2022-12-17T12:48:15.459Z,29.60
2022-12-17T12:51:09.084Z,30.52
2022-12-17T12:53:53.886Z,29.65
2022-12-17T12:56:46.075Z,32.88
2022-12-17T12:59:43.208Z,31.38
2022-12-17T13:02:51.646Z,31.70
2022-12-17T13:05:34.460Z,30.20
2022-12-17T13:08:10.048Z,32.22
2022-12-17T13:13:17.344Z,30.42
2022-12-17T13:16:17.202Z,29.45
2022-12-17T13:18:43.741Z,29.15
2022-12-17T13:21:16.286Z,30.40
2022-12-17T13:23:43.909Z,33.50
2022-12-17T13:26:20.268Z,31.17
2022-12-17T13:29:03.288Z,31.10
2022-12-17T13:31:52.012Z,32.08
2022-12-17T13:34:39.801Z,30.80
2022-12-17T13:37:17.970Z,31.42
2022-12-17T13:39:57.717Z,32.55
2022-12-17T13:42:32.368Z,32.22
2022-12-17T13:44:59.465Z,32.53
2022-12-17T13:47:28.216Z,32.47
2022-12-17T13:50:32.823Z,33.72
2022-12-17T13:52:43.660Z,32.85
2022-12-17T13:55:19.493Z,32.85
2022-12-17T13:57:46.693Z,31.80
2022-12-17T14:00:31.149Z,32.72
2022-12-17T14:02:58.077Z,31.85
2022-12-17T14:05:37.364Z,32.95
2022-12-17T14:08:05.403Z,33.58
2022-12-17T14:10:32.744Z,34.88
2022-12-17T14:13:07.175Z,33.88
2022-12-17T14:15:34.619Z,34.10
2022-12-17T14:18:02.311Z,34.90
2022-12-17T14:20:35.311Z,35.25
2022-12-17T14:23:11.003Z,35.17
2022-12-17T14:25:39.934Z,35.22
2022-12-17T14:28:30.031Z,36.42
2022-12-17T14:34:11.840Z,33.50
2022-12-17T14:36:41.769Z,33.33
2022-12-17T14:39:28.960Z,34.28
2022-12-17T14:42:25.914Z,32.67
2022-12-17T14:45:20.465Z,33.38
2022-12-17T14:48:01.272Z,33.05
2022-12-17T14:50:34.496Z,35.83
2022-12-17T14:53:22.734Z,33.13
2022-12-17T14:55:57.278Z,34.50
2022-12-17T14:58:25.689Z,34.97
2022-12-17T15:01:09.145Z,34.78
2022-12-17T15:03:44.150Z,34.30
2022-12-17T15:06:15.276Z,33.88
2022-12-17T15:08:47.282Z,34.22
2022-12-17T15:11:17.104Z,33.42
2022-12-17T15:13:44.195Z,35.08
2022-12-17T15:16:13.567Z,35.15
2022-12-17T15:18:40.409Z,34.08
2022-12-17T15:21:10.000Z,32.88
2022-12-17T15:23:40.961Z,34.13
2022-12-17T15:26:09.699Z,33.10
2022-12-17T15:28:36.734Z,32.55
2022-12-17T15:31:03.790Z,31.77
2022-12-17T15:33:30.715Z,34.72
2022-12-17T15:35:58.307Z,34.63
2022-12-17T15:38:24.868Z,32.70
2022-12-17T15:40:51.366Z,31.52
2022-12-17T15:43:18.103Z,31.17
2022-12-17T15:45:49.640Z,32.45
2022-12-17T15:48:19.363Z,31.77
2022-12-17T15:50:47.114Z,32.85
2022-12-17T15:53:14.385Z,32.10
2022-12-17T15:55:41.324Z,32.67
2022-12-17T15:58:10.550Z,33.60
2022-12-17T16:00:37.794Z,32.35
2022-12-17T16:03:04.432Z,32.05
2022-12-17T16:05:31.042Z,33.78
2022-12-17T16:08:02.015Z,32.70
2022-12-17T16:10:28.700Z,34.45
2022-12-17T16:12:55.152Z,35.67
2022-12-17T16:15:21.681Z,33.83
2022-12-17T16:17:48.183Z,35.60
2022-12-17T16:20:14.674Z,35.75
2022-12-17T16:22:41.591Z,35.42
2022-12-17T16:25:08.661Z,35.00
2022-12-17T16:27:35.294Z,36.88
2022-12-17T16:30:03.260Z,37.65
2022-12-17T16:32:35.959Z,37.13
2022-12-17T16:35:04.717Z,36.50
2022-12-17T16:37:31.386Z,38.50
2022-12-17T16:40:00.206Z,37.58
2022-12-17T16:42:27.330Z,38.47
2022-12-17T16:44:53.857Z,37.22
2022-12-17T16:47:20.432Z,37.30
2022-12-17T16:49:50.173Z,34.90
2022-12-17T16:52:16.702Z,36.33
2022-12-17T16:54:43.227Z,38.22
2022-12-17T16:57:09.727Z,37.25
2022-12-17T16:59:36.260Z,38.38
2022-12-17T17:02:03.055Z,38.25
2022-12-17T17:04:29.832Z,37.92
2022-12-17T17:06:57.556Z,38.92
2022-12-17T17:09:25.658Z,37.40
2022-12-17T17:11:56.868Z,39.35
2022-12-17T17:14:24.046Z,40.53
2022-12-17T17:16:51.079Z,39.35
2022-12-17T17:19:18.533Z,39.28
2022-12-17T17:21:51.706Z,37.53
2022-12-17T17:24:22.085Z,35.70
2022-12-17T17:26:50.549Z,37.63
2022-12-17T17:29:17.263Z,37.15
2022-12-17T17:32:09.133Z,35.42
2022-12-17T17:34:30.220Z,36.08
2022-12-17T17:36:56.678Z,33.38
2022-12-17T17:39:23.259Z,31.77
2022-12-17T17:41:49.879Z,32.67
2022-12-17T17:44:16.509Z,33.58
2022-12-17T17:46:43.347Z,32.40
2022-12-17T17:49:10.531Z,33.60
2022-12-17T17:54:28.113Z,32.38
2022-12-17T17:56:55.415Z,31.38
2022-12-17T17:59:29.202Z,34.92
2022-12-17T18:02:00.212Z,32.72
2022-12-17T18:04:26.972Z,33.53
2022-12-17T18:07:23.806Z,33.47
2022-12-17T18:09:39.970Z,33.78
2022-12-17T18:12:25.602Z,32.95
2022-12-17T18:17:39.255Z,32.38
2022-12-17T18:20:06.394Z,32.40
2022-12-17T18:22:32.954Z,34.17
2022-12-17T18:24:59.515Z,31.88
2022-12-17T18:27:26.005Z,32.25
2022-12-17T18:29:52.596Z,34.40
2022-12-17T18:32:19.248Z,36.15
2022-12-17T18:34:45.841Z,34.17
2022-12-17T18:37:12.365Z,35.05
2022-12-17T18:39:38.923Z,36.45
2022-12-17T18:42:24.252Z,33.92
2022-12-17T18:44:50.745Z,34.15
2022-12-17T18:47:18.710Z,33.83
2022-12-17T18:49:45.389Z,34.15
2022-12-17T18:52:16.468Z,34.20
2022-12-17T18:54:43.827Z,31.83
2022-12-17T18:57:10.830Z,32.60
2022-12-17T18:59:37.479Z,30.23
2022-12-17T19:02:04.550Z,30.40
2022-12-17T19:04:32.963Z,31.55
2022-12-17T19:06:59.798Z,31.45
2022-12-17T19:09:29.127Z,29.63
2022-12-17T19:11:56.940Z,31.08
2022-12-17T19:14:25.093Z,29.05
2022-12-17T19:16:54.338Z,32.10
2022-12-17T19:19:21.842Z,31.27
2022-12-17T19:21:48.831Z,31.10
2022-12-17T19:24:18.256Z,31.83
2022-12-17T19:26:45.917Z,31.58
2022-12-17T19:29:14.407Z,28.85
2022-12-17T19:31:41.282Z,31.17
2022-12-17T19:34:11.172Z,31.30
2022-12-17T19:36:39.369Z,30.17
2022-12-17T19:39:08.949Z,31.08
2022-12-17T19:41:35.576Z,31.48
2022-12-17T19:44:05.104Z,30.33
2022-12-17T19:46:33.177Z,31.85
2022-12-17T19:49:00.007Z,30.88
2022-12-17T19:51:29.421Z,31.65
2022-12-17T19:53:56.348Z,31.23
2022-12-17T19:56:30.501Z,34.33
2022-12-17T19:59:02.169Z,31.33
2022-12-17T20:01:33.981Z,33.28
2022-12-17T20:04:01.066Z,31.35
2022-12-17T20:06:32.051Z,34.45
2022-12-17T20:08:59.784Z,33.38
2022-12-17T20:11:32.903Z,34.47
2022-12-17T20:14:08.540Z,33.45
2022-12-17T20:16:41.528Z,33.25
2022-12-17T20:19:11.672Z,32.35
2022-12-17T20:21:38.698Z,31.58
2022-12-17T20:24:05.805Z,30.98
2022-12-17T20:26:33.177Z,31.75
2022-12-17T20:29:00.137Z,30.17
2022-12-17T20:31:28.051Z,30.60
2022-12-17T20:33:54.907Z,31.42
2022-12-17T20:36:22.559Z,29.67
2022-12-17T20:38:49.678Z,30.45
2022-12-17T20:41:24.560Z,30.95
2022-12-17T20:43:51.744Z,29.70
2022-12-17T20:46:19.707Z,31.17
2022-12-17T20:48:46.765Z,28.30
2022-12-17T20:51:16.903Z,28.35
2022-12-17T20:53:44.952Z,30.17
2022-12-17T20:56:14.921Z,29.70
2022-12-17T20:58:42.636Z,30.33
2022-12-17T21:01:19.029Z,31.27
2022-12-17T21:03:47.216Z,28.60
2022-12-17T21:06:16.628Z,29.85
2022-12-17T21:08:49.280Z,30.13
2022-12-17T21:11:24.778Z,30.42
2022-12-17T21:13:51.826Z,29.77
2022-12-17T21:16:21.428Z,29.85
2022-12-17T21:18:48.346Z,30.95
2022-12-17T21:21:20.747Z,30.83
2022-12-17T21:23:48.559Z,30.42
2022-12-17T21:26:18.477Z,28.30
2022-12-17T21:28:47.127Z,30.10
2022-12-17T21:31:22.503Z,30.38
2022-12-17T21:33:50.724Z,29.95
2022-12-17T21:36:19.988Z,30.38
2022-12-17T21:38:47.337Z,28.02
2022-12-17T21:41:16.879Z,29.75
2022-12-17T21:43:43.861Z,28.10
2022-12-17T21:46:11.704Z,28.27
2022-12-17T21:48:42.096Z,30.60
2022-12-17T21:51:11.889Z,30.98
2022-12-17T21:53:42.647Z,30.35
2022-12-17T21:56:12.735Z,30.02
2022-12-17T21:58:40.826Z,29.83
2022-12-17T22:01:22.142Z,30.95
2022-12-17T22:03:54.013Z,29.63
2022-12-17T22:06:25.089Z,31.38
2022-12-17T22:09:01.703Z,29.65
2022-12-17T22:11:40.740Z,28.20
2022-12-17T22:14:16.994Z,30.27
2022-12-17T22:16:49.458Z,29.75
2022-12-17T22:19:23.137Z,30.00
2022-12-17T22:21:51.466Z,28.98
2022-12-17T22:24:25.363Z,29.50
2022-12-17T22:26:59.491Z,29.40
2022-12-17T22:29:48.287Z,29.75
2022-12-17T22:32:33.024Z,29.42
2022-12-17T22:35:45.759Z,30.73
2022-12-17T22:42:47.840Z,27.98
2022-12-17T22:44:30.853Z,29.27
2022-12-17T22:44:45.731Z,29.33
2022-12-17T22:46:16.835Z,29.85
2022-12-17T22:48:43.493Z,31.10
2022-12-17T22:51:13.544Z,31.05
2022-12-17T22:53:45.149Z,30.17
2022-12-17T22:56:27.768Z,28.73
2022-12-17T22:58:59.397Z,30.05
2022-12-17T23:01:26.656Z,30.05
2022-12-17T23:03:57.863Z,30.52
2022-12-17T23:06:24.691Z,28.65
2022-12-17T23:08:51.519Z,31.80
2022-12-17T23:11:26.848Z,30.55
2022-12-17T23:16:21.480Z,28.05
2022-12-17T23:18:49.583Z,30.38
2022-12-17T23:21:19.236Z,29.35
2022-12-17T23:23:46.132Z,30.38
2022-12-17T23:26:18.688Z,31.65
2022-12-17T23:28:46.277Z,30.95
2022-12-17T23:31:17.640Z,30.63
2022-12-17T23:33:44.861Z,30.42
2022-12-17T23:36:14.628Z,30.13
2022-12-17T23:38:41.238Z,30.95
2022-12-17T23:41:10.913Z,31.50
2022-12-17T23:43:38.570Z,29.45
2022-12-17T23:46:07.064Z,29.85
2022-12-17T23:48:40.763Z,30.55
2022-12-17T23:51:14.122Z,29.27
2022-12-17T23:53:42.004Z,29.38
2022-12-17T23:56:19.665Z,27.90
2022-12-17T23:58:47.784Z,29.35
